PAYA/YAK METAR and TAF weather

Enter ICAO airport designator
Station Type Date Time Source
PAYA METAR 2021/05/11 21:53 UTC NOAA

PAYA 112153Z AUTO 14004KT 10SM FEW014 BKN023 OVC036 07/03 A3023 RMK AO2 RAE07 SLP237 P0000 T00720033 TSNO


Station Type Date Time Source
PAYA Decoded METAR 2021/05/11 21:53 UTC NOAA

YAKUTAT AIRPORT, AK, United States (PAYA) 59-30N 139-40W 9M
May 11, 2021 - 05:53 PM EDT / 2021.05.11 2153 UTC
Wind: from the SE (140 degrees) at 5 MPH (4 KT):0
Visibility: 10 mile(s):0
Sky conditions: overcast
Precipitation last hour: A trace
Temperature: 45.0 F (7.2 C)
Dew Point: 37.9 F (3.3 C)
Relative Humidity: 76%
Pressure (altimeter): 30.23 in. Hg (1023 hPa)
ob: PAYA 112153Z AUTO 14004KT 10SM FEW014 BKN023 OVC036 07/03 A3023 RMK AO2 RAE07 SLP237 P0000 T00720033 TSNO
cycle: 22

Station Type Date Time Source
PAYA TAF 2021/05/11 21:12 UTC NOAA

TAF
AMD PAYA 112109Z 1121/1218 18005KT 5SM -SHRA BR SCT015 OVC020
TEMPO 1121/1123 3SM -SHRA BR
FM120000 VRB04KT P6SM VCSH BKN035
AMD LTD TO CLD VIS AND WIND

Example: see airport list